sensor_id;sensor_type;location;lat;lon;timestamp;temperature;humidity
54082;DHT22;39986;50.770;0.266;2022-09-03T00:01:58;19.10;99.90
54082;DHT22;39986;50.770;0.266;2022-09-03T00:07:14;19.10;99.90
54082;DHT22;39986;50.770;0.266;2022-09-03T00:09:52;19.10;99.90
54082;DHT22;39986;50.770;0.266;2022-09-03T00:14:50;19.30;99.90
54082;DHT22;39986;50.770;0.266;2022-09-03T00:17:18;19.40;99.90
54082;DHT22;39986;50.770;0.266;2022-09-03T00:19:54;19.40;99.90
54082;DHT22;39986;50.770;0.266;2022-09-03T00:22:21;19.40;99.90
54082;DHT22;39986;50.770;0.266;2022-09-03T00:24:48;19.30;99.90
54082;DHT22;39986;50.770;0.266;2022-09-03T00:27:16;19.20;99.90
54082;DHT22;39986;50.770;0.266;2022-09-03T00:32:19;19.10;99.90
54082;DHT22;39986;50.770;0.266;2022-09-03T00:34:48;19.20;99.90
54082;DHT22;39986;50.770;0.266;2022-09-03T00:37:15;19.20;99.90
54082;DHT22;39986;50.770;0.266;2022-09-03T00:39:41;19.30;99.90
54082;DHT22;39986;50.770;0.266;2022-09-03T00:44:58;19.30;99.90
54082;DHT22;39986;50.770;0.266;2022-09-03T00:50:14;19.20;99.90
54082;DHT22;39986;50.770;0.266;2022-09-03T00:58:03;19.40;99.90
54082;DHT22;39986;50.770;0.266;2022-09-03T01:00:34;19.50;99.90
54082;DHT22;39986;50.770;0.266;2022-09-03T01:03:05;19.30;99.90
54082;DHT22;39986;50.770;0.266;2022-09-03T01:18:42;19.10;99.90
54082;DHT22;39986;50.770;0.266;2022-09-03T01:39:03;18.60;99.90
54082;DHT22;39986;50.770;0.266;2022-09-03T01:46:49;18.40;99.90
54082;DHT22;39986;50.770;0.266;2022-09-03T01:49:30;18.30;99.90
54082;DHT22;39986;50.770;0.266;2022-09-03T01:52:05;18.30;99.90
54082;DHT22;39986;50.770;0.266;2022-09-03T02:02:22;18.20;99.90
54082;DHT22;39986;50.770;0.266;2022-09-03T02:04:59;18.20;99.90
54082;DHT22;39986;50.770;0.266;2022-09-03T02:07:26;18.30;99.90
54082;DHT22;39986;50.770;0.266;2022-09-03T02:09:58;18.30;99.90
54082;DHT22;39986;50.770;0.266;2022-09-03T02:12:25;18.20;99.90
54082;DHT22;39986;50.770;0.266;2022-09-03T02:14:53;18.20;99.90
54082;DHT22;39986;50.770;0.266;2022-09-03T02:17:19;18.30;99.90
54082;DHT22;39986;50.770;0.266;2022-09-03T02:19:45;18.20;99.90
54082;DHT22;39986;50.770;0.266;2022-09-03T02:22:11;18.20;99.90
54082;DHT22;39986;50.770;0.266;2022-09-03T02:24:36;18.20;99.90
54082;DHT22;39986;50.770;0.266;2022-09-03T02:27:02;18.20;99.90
54082;DHT22;39986;50.770;0.266;2022-09-03T02:29:28;18.20;99.90
54082;DHT22;39986;50.770;0.266;2022-09-03T02:31:55;18.30;99.90
54082;DHT22;39986;50.770;0.266;2022-09-03T02:34:22;18.30;99.90
54082;DHT22;39986;50.770;0.266;2022-09-03T02:36:48;18.30;99.90
54082;DHT22;39986;50.770;0.266;2022-09-03T02:39:14;18.40;99.90
54082;DHT22;39986;50.770;0.266;2022-09-03T02:41:40;18.30;99.90
54082;DHT22;39986;50.770;0.266;2022-09-03T02:49:05;18.20;99.90
54082;DHT22;39986;50.770;0.266;2022-09-03T02:51:35;18.20;99.90
54082;DHT22;39986;50.770;0.266;2022-09-03T02:54:01;18.30;99.90
54082;DHT22;39986;50.770;0.266;2022-09-03T02:56:27;18.30;99.90
54082;DHT22;39986;50.770;0.266;2022-09-03T02:58:52;18.30;99.90
54082;DHT22;39986;50.770;0.266;2022-09-03T03:01:18;18.30;99.90
54082;DHT22;39986;50.770;0.266;2022-09-03T03:03:44;18.40;99.90
54082;DHT22;39986;50.770;0.266;2022-09-03T03:06:10;18.40;99.90
54082;DHT22;39986;50.770;0.266;2022-09-03T03:08:36;18.50;99.90
54082;DHT22;39986;50.770;0.266;2022-09-03T03:11:02;18.60;99.90
54082;DHT22;39986;50.770;0.266;2022-09-03T03:13:28;18.60;99.90
54082;DHT22;39986;50.770;0.266;2022-09-03T03:15:55;18.70;99.90
54082;DHT22;39986;50.770;0.266;2022-09-03T03:18:20;18.80;99.90
54082;DHT22;39986;50.770;0.266;2022-09-03T03:20:46;18.70;99.90
54082;DHT22;39986;50.770;0.266;2022-09-03T03:23:12;18.80;99.90
54082;DHT22;39986;50.770;0.266;2022-09-03T03:25:46;18.70;99.90
54082;DHT22;39986;50.770;0.266;2022-09-03T03:28:12;18.70;99.90
54082;DHT22;39986;50.770;0.266;2022-09-03T03:30:38;18.70;99.90
54082;DHT22;39986;50.770;0.266;2022-09-03T03:33:05;18.70;99.90
54082;DHT22;39986;50.770;0.266;2022-09-03T03:35:30;18.70;99.90
54082;DHT22;39986;50.770;0.266;2022-09-03T03:37:56;18.70;99.90
54082;DHT22;39986;50.770;0.266;2022-09-03T03:40:22;18.70;99.90
54082;DHT22;39986;50.770;0.266;2022-09-03T03:42:47;18.70;99.90
54082;DHT22;39986;50.770;0.266;2022-09-03T03:45:14;18.70;99.90
54082;DHT22;39986;50.770;0.266;2022-09-03T03:47:41;18.80;99.90
54082;DHT22;39986;50.770;0.266;2022-09-03T03:50:07;18.80;99.90
54082;DHT22;39986;50.770;0.266;2022-09-03T03:52:32;18.90;99.90
54082;DHT22;39986;50.770;0.266;2022-09-03T03:54:58;18.80;99.90
54082;DHT22;39986;50.770;0.266;2022-09-03T03:57:24;18.90;99.90
54082;DHT22;39986;50.770;0.266;2022-09-03T03:59:49;18.80;99.90
54082;DHT22;39986;50.770;0.266;2022-09-03T04:02:16;18.80;99.90
54082;DHT22;39986;50.770;0.266;2022-09-03T04:04:41;18.70;99.90
54082;DHT22;39986;50.770;0.266;2022-09-03T04:07:07;18.70;99.90
54082;DHT22;39986;50.770;0.266;2022-09-03T04:09:32;18.60;99.90
54082;DHT22;39986;50.770;0.266;2022-09-03T04:11:58;18.60;99.90
54082;DHT22;39986;50.770;0.266;2022-09-03T04:14:27;18.60;99.90
54082;DHT22;39986;50.770;0.266;2022-09-03T04:16:53;18.50;99.90
54082;DHT22;39986;50.770;0.266;2022-09-03T04:19:20;18.50;99.90
54082;DHT22;39986;50.770;0.266;2022-09-03T04:21:46;18.50;99.90
54082;DHT22;39986;50.770;0.266;2022-09-03T04:24:11;18.40;99.90
54082;DHT22;39986;50.770;0.266;2022-09-03T04:26:37;18.40;99.90
54082;DHT22;39986;50.770;0.266;2022-09-03T04:29:06;18.30;99.90
54082;DHT22;39986;50.770;0.266;2022-09-03T04:31:32;18.30;99.90
54082;DHT22;39986;50.770;0.266;2022-09-03T04:33:57;18.20;99.90
54082;DHT22;39986;50.770;0.266;2022-09-03T04:36:25;18.20;99.90
54082;DHT22;39986;50.770;0.266;2022-09-03T04:38:51;18.20;99.90
54082;DHT22;39986;50.770;0.266;2022-09-03T04:41:25;18.10;99.90
54082;DHT22;39986;50.770;0.266;2022-09-03T04:43:51;18.00;99.90
54082;DHT22;39986;50.770;0.266;2022-09-03T04:46:17;17.90;99.90
54082;DHT22;39986;50.770;0.266;2022-09-03T04:48:46;17.80;99.90
54082;DHT22;39986;50.770;0.266;2022-09-03T04:51:13;17.80;99.90
54082;DHT22;39986;50.770;0.266;2022-09-03T04:53:40;17.70;99.90
54082;DHT22;39986;50.770;0.266;2022-09-03T04:56:12;17.80;99.90
54082;DHT22;39986;50.770;0.266;2022-09-03T04:58:38;17.80;99.90
54082;DHT22;39986;50.770;0.266;2022-09-03T05:01:08;17.70;99.90
54082;DHT22;39986;50.770;0.266;2022-09-03T05:03:33;17.80;99.90
54082;DHT22;39986;50.770;0.266;2022-09-03T05:06:01;17.70;99.90
54082;DHT22;39986;50.770;0.266;2022-09-03T05:08:27;17.70;99.90
54082;DHT22;39986;50.770;0.266;2022-09-03T05:10:59;17.70;99.90
54082;DHT22;39986;50.770;0.266;2022-09-03T05:13:25;17.70;99.90
54082;DHT22;39986;50.770;0.266;2022-09-03T05:15:51;17.70;99.90
54082;DHT22;39986;50.770;0.266;2022-09-03T05:18:16;17.70;99.90
54082;DHT22;39986;50.770;0.266;2022-09-03T05:20:42;17.70;99.90
54082;DHT22;39986;50.770;0.266;2022-09-03T05:23:08;17.70;99.90
54082;DHT22;39986;50.770;0.266;2022-09-03T05:25:34;17.70;99.90
54082;DHT22;39986;50.770;0.266;2022-09-03T05:28:02;17.70;99.90
54082;DHT22;39986;50.770;0.266;2022-09-03T05:30:27;17.70;99.90
54082;DHT22;39986;50.770;0.266;2022-09-03T05:32:53;17.60;99.90
54082;DHT22;39986;50.770;0.266;2022-09-03T05:35:19;17.60;99.90
54082;DHT22;39986;50.770;0.266;2022-09-03T05:37:44;17.70;99.90
54082;DHT22;39986;50.770;0.266;2022-09-03T05:40:10;17.70;99.90
54082;DHT22;39986;50.770;0.266;2022-09-03T05:42:36;17.80;99.90
54082;DHT22;39986;50.770;0.266;2022-09-03T05:45:11;17.70;99.90
54082;DHT22;39986;50.770;0.266;2022-09-03T05:47:37;17.70;99.90
54082;DHT22;39986;50.770;0.266;2022-09-03T05:50:04;17.80;99.90
54082;DHT22;39986;50.770;0.266;2022-09-03T05:52:30;17.70;99.90
54082;DHT22;39986;50.770;0.266;2022-09-03T05:54:57;17.70;99.90
54082;DHT22;39986;50.770;0.266;2022-09-03T05:57:23;17.80;99.90
54082;DHT22;39986;50.770;0.266;2022-09-03T05:59:49;17.80;99.90
54082;DHT22;39986;50.770;0.266;2022-09-03T06:02:14;17.90;99.90
54082;DHT22;39986;50.770;0.266;2022-09-03T06:04:40;17.90;99.90
54082;DHT22;39986;50.770;0.266;2022-09-03T06:07:05;17.90;99.90
54082;DHT22;39986;50.770;0.266;2022-09-03T06:09:31;18.00;99.90
54082;DHT22;39986;50.770;0.266;2022-09-03T06:11:56;18.00;99.90
54082;DHT22;39986;50.770;0.266;2022-09-03T06:14:22;18.10;99.90
54082;DHT22;39986;50.770;0.266;2022-09-03T06:16:48;18.10;99.90
54082;DHT22;39986;50.770;0.266;2022-09-03T06:19:14;18.20;99.90
54082;DHT22;39986;50.770;0.266;2022-09-03T06:21:40;18.10;99.90
54082;DHT22;39986;50.770;0.266;2022-09-03T06:24:08;18.20;99.90
54082;DHT22;39986;50.770;0.266;2022-09-03T06:26:33;18.20;99.90
54082;DHT22;39986;50.770;0.266;2022-09-03T06:28:59;18.30;99.90
54082;DHT22;39986;50.770;0.266;2022-09-03T06:31:24;18.50;99.90
54082;DHT22;39986;50.770;0.266;2022-09-03T06:33:50;18.60;99.90
54082;DHT22;39986;50.770;0.266;2022-09-03T06:36:17;18.80;99.90
54082;DHT22;39986;50.770;0.266;2022-09-03T06:38:43;18.90;99.90
54082;DHT22;39986;50.770;0.266;2022-09-03T06:41:11;19.20;99.90
54082;DHT22;39986;50.770;0.266;2022-09-03T06:43:37;19.30;99.90
54082;DHT22;39986;50.770;0.266;2022-09-03T06:46:05;19.50;99.90
54082;DHT22;39986;50.770;0.266;2022-09-03T06:48:31;19.70;99.90
54082;DHT22;39986;50.770;0.266;2022-09-03T06:51:01;19.80;99.90
54082;DHT22;39986;50.770;0.266;2022-09-03T06:53:28;20.00;99.90
54082;DHT22;39986;50.770;0.266;2022-09-03T06:55:54;20.10;99.90
54082;DHT22;39986;50.770;0.266;2022-09-03T06:58:20;20.20;99.90
54082;DHT22;39986;50.770;0.266;2022-09-03T07:00:47;20.30;99.90
54082;DHT22;39986;50.770;0.266;2022-09-03T07:03:14;20.50;99.90
54082;DHT22;39986;50.770;0.266;2022-09-03T07:05:40;20.70;99.90
54082;DHT22;39986;50.770;0.266;2022-09-03T07:08:07;20.90;99.90
54082;DHT22;39986;50.770;0.266;2022-09-03T07:10:37;20.90;99.90
54082;DHT22;39986;50.770;0.266;2022-09-03T07:13:03;21.10;99.90
54082;DHT22;39986;50.770;0.266;2022-09-03T07:15:31;21.30;99.90
54082;DHT22;39986;50.770;0.266;2022-09-03T07:17:57;21.40;99.90
54082;DHT22;39986;50.770;0.266;2022-09-03T07:20:23;21.40;99.90
54082;DHT22;39986;50.770;0.266;2022-09-03T07:22:48;21.40;99.90
54082;DHT22;39986;50.770;0.266;2022-09-03T07:25:14;21.50;99.90
54082;DHT22;39986;50.770;0.266;2022-09-03T07:27:39;21.60;99.90
54082;DHT22;39986;50.770;0.266;2022-09-03T07:30:06;21.70;99.90
54082;DHT22;39986;50.770;0.266;2022-09-03T07:32:34;21.90;99.90
54082;DHT22;39986;50.770;0.266;2022-09-03T07:35:01;22.00;99.90
54082;DHT22;39986;50.770;0.266;2022-09-03T07:37:27;21.90;99.90
54082;DHT22;39986;50.770;0.266;2022-09-03T07:39:52;21.90;99.90
54082;DHT22;39986;50.770;0.266;2022-09-03T07:42:18;21.80;99.90
54082;DHT22;39986;50.770;0.266;2022-09-03T07:44:45;21.70;99.90
54082;DHT22;39986;50.770;0.266;2022-09-03T07:47:10;21.70;99.90
54082;DHT22;39986;50.770;0.266;2022-09-03T07:49:37;21.70;99.90
54082;DHT22;39986;50.770;0.266;2022-09-03T07:52:02;21.80;99.90
54082;DHT22;39986;50.770;0.266;2022-09-03T07:54:28;22.00;99.90
54082;DHT22;39986;50.770;0.266;2022-09-03T07:56:54;22.10;99.90
54082;DHT22;39986;50.770;0.266;2022-09-03T07:59:19;22.20;99.90
54082;DHT22;39986;50.770;0.266;2022-09-03T08:01:47;22.40;99.90
54082;DHT22;39986;50.770;0.266;2022-09-03T08:04:12;22.60;99.90
54082;DHT22;39986;50.770;0.266;2022-09-03T08:06:38;22.80;99.90
54082;DHT22;39986;50.770;0.266;2022-09-03T08:09:05;22.80;99.90
54082;DHT22;39986;50.770;0.266;2022-09-03T08:11:38;22.60;99.90
54082;DHT22;39986;50.770;0.266;2022-09-03T08:14:05;22.20;99.90
54082;DHT22;39986;50.770;0.266;2022-09-03T08:16:31;22.10;99.90
54082;DHT22;39986;50.770;0.266;2022-09-03T08:18:58;22.20;99.90
54082;DHT22;39986;50.770;0.266;2022-09-03T08:21:24;22.30;99.90
54082;DHT22;39986;50.770;0.266;2022-09-03T08:23:51;22.30;99.90
54082;DHT22;39986;50.770;0.266;2022-09-03T08:26:18;22.30;99.90
54082;DHT22;39986;50.770;0.266;2022-09-03T08:28:43;22.40;99.90
54082;DHT22;39986;50.770;0.266;2022-09-03T08:31:10;22.60;99.90
54082;DHT22;39986;50.770;0.266;2022-09-03T08:33:37;22.90;99.90
54082;DHT22;39986;50.770;0.266;2022-09-03T08:36:06;23.10;99.90
54082;DHT22;39986;50.770;0.266;2022-09-03T08:38:33;23.40;99.90
54082;DHT22;39986;50.770;0.266;2022-09-03T08:41:05;23.60;99.90
54082;DHT22;39986;50.770;0.266;2022-09-03T08:43:34;23.80;99.90
54082;DHT22;39986;50.770;0.266;2022-09-03T08:46:01;23.60;99.90
54082;DHT22;39986;50.770;0.266;2022-09-03T08:48:27;23.50;99.90
54082;DHT22;39986;50.770;0.266;2022-09-03T08:50:53;23.50;99.90
54082;DHT22;39986;50.770;0.266;2022-09-03T08:56:11;23.50;99.90
54082;DHT22;39986;50.770;0.266;2022-09-03T08:58:38;23.40;99.90
54082;DHT22;39986;50.770;0.266;2022-09-03T09:06:33;23.60;99.90
54082;DHT22;39986;50.770;0.266;2022-09-03T09:11:39;23.90;99.90
54082;DHT22;39986;50.770;0.266;2022-09-03T09:19:41;23.80;99.90
54082;DHT22;39986;50.770;0.266;2022-09-03T09:22:09;24.00;99.90
54082;DHT22;39986;50.770;0.266;2022-09-03T09:24:38;24.00;99.90
54082;DHT22;39986;50.770;0.266;2022-09-03T09:27:04;23.90;99.90
54082;DHT22;39986;50.770;0.266;2022-09-03T09:29:31;23.80;99.90
54082;DHT22;39986;50.770;0.266;2022-09-03T09:31:57;23.80;99.90
54082;DHT22;39986;50.770;0.266;2022-09-03T09:34:22;24.00;99.90
54082;DHT22;39986;50.770;0.266;2022-09-03T09:36:51;24.00;99.90
54082;DHT22;39986;50.770;0.266;2022-09-03T09:39:17;24.00;99.90
54082;DHT22;39986;50.770;0.266;2022-09-03T09:41:57;24.20;99.90
54082;DHT22;39986;50.770;0.266;2022-09-03T09:44:24;24.20;99.90
54082;DHT22;39986;50.770;0.266;2022-09-03T09:46:50;24.30;99.90
54082;DHT22;39986;50.770;0.266;2022-09-03T09:49:42;24.30;99.90
54082;DHT22;39986;50.770;0.266;2022-09-03T09:52:15;24.50;99.90
54082;DHT22;39986;50.770;0.266;2022-09-03T09:54:42;24.80;99.90
54082;DHT22;39986;50.770;0.266;2022-09-03T09:57:13;25.10;99.90
54082;DHT22;39986;50.770;0.266;2022-09-03T09:59:42;25.10;99.90
54082;DHT22;39986;50.770;0.266;2022-09-03T10:02:10;25.20;99.90
54082;DHT22;39986;50.770;0.266;2022-09-03T10:04:36;25.60;99.90
54082;DHT22;39986;50.770;0.266;2022-09-03T10:09:40;25.60;99.90
54082;DHT22;39986;50.770;0.266;2022-09-03T10:12:13;26.00;99.90
54082;DHT22;39986;50.770;0.266;2022-09-03T10:14:46;26.30;99.90
54082;DHT22;39986;50.770;0.266;2022-09-03T10:17:22;26.40;99.90
54082;DHT22;39986;50.770;0.266;2022-09-03T10:19:59;26.40;99.90
54082;DHT22;39986;50.770;0.266;2022-09-03T10:22:49;26.10;99.90
54082;DHT22;39986;50.770;0.266;2022-09-03T10:25:16;25.90;99.90
54082;DHT22;39986;50.770;0.266;2022-09-03T10:27:42;25.80;99.90
54082;DHT22;39986;50.770;0.266;2022-09-03T10:30:11;26.00;99.90
54082;DHT22;39986;50.770;0.266;2022-09-03T10:33:02;26.50;99.90
54082;DHT22;39986;50.770;0.266;2022-09-03T10:35:30;26.80;99.90
54082;DHT22;39986;50.770;0.266;2022-09-03T10:38:09;27.10;99.90
54082;DHT22;39986;50.770;0.266;2022-09-03T10:48:30;30.10;99.90
54082;DHT22;39986;50.770;0.266;2022-09-03T10:51:12;30.70;99.90
54082;DHT22;39986;50.770;0.266;2022-09-03T10:56:24;29.60;99.90
54082;DHT22;39986;50.770;0.266;2022-09-03T11:06:28;31.20;99.90
54082;DHT22;39986;50.770;0.266;2022-09-03T11:09:04;31.00;99.90
54082;DHT22;39986;50.770;0.266;2022-09-03T11:11:37;30.90;99.90
54082;DHT22;39986;50.770;0.266;2022-09-03T11:14:07;30.50;99.90
54082;DHT22;39986;50.770;0.266;2022-09-03T11:16:35;30.20;99.90
54082;DHT22;39986;50.770;0.266;2022-09-03T11:19:03;30.00;99.90
54082;DHT22;39986;50.770;0.266;2022-09-03T11:21:30;29.40;99.90
54082;DHT22;39986;50.770;0.266;2022-09-03T11:24:30;29.40;99.90
54082;DHT22;39986;50.770;0.266;2022-09-03T11:26:56;29.10;99.90
54082;DHT22;39986;50.770;0.266;2022-09-03T11:29:38;28.50;99.90
54082;DHT22;39986;50.770;0.266;2022-09-03T11:32:16;27.30;99.90
54082;DHT22;39986;50.770;0.266;2022-09-03T11:34:44;26.30;99.90
54082;DHT22;39986;50.770;0.266;2022-09-03T11:37:21;25.80;99.90
54082;DHT22;39986;50.770;0.266;2022-09-03T11:40:07;25.80;99.90
54082;DHT22;39986;50.770;0.266;2022-09-03T11:42:35;26.10;99.90
54082;DHT22;39986;50.770;0.266;2022-09-03T11:45:21;26.30;99.90
54082;DHT22;39986;50.770;0.266;2022-09-03T11:47:47;26.80;99.90
54082;DHT22;39986;50.770;0.266;2022-09-03T11:50:26;27.70;99.90
54082;DHT22;39986;50.770;0.266;2022-09-03T11:53:37;28.60;99.90
54082;DHT22;39986;50.770;0.266;2022-09-03T11:58:25;29.50;99.90
54082;DHT22;39986;50.770;0.266;2022-09-03T12:00:54;29.60;99.90
54082;DHT22;39986;50.770;0.266;2022-09-03T12:03:24;28.60;99.90
54082;DHT22;39986;50.770;0.266;2022-09-03T12:06:05;27.60;99.90
54082;DHT22;39986;50.770;0.266;2022-09-03T12:19:17;26.10;99.90
54082;DHT22;39986;50.770;0.266;2022-09-03T12:21:47;25.50;99.90
54082;DHT22;39986;50.770;0.266;2022-09-03T12:24:13;24.70;99.90
54082;DHT22;39986;50.770;0.266;2022-09-03T12:26:40;25.30;99.90
54082;DHT22;39986;50.770;0.266;2022-09-03T12:29:06;27.00;99.90
54082;DHT22;39986;50.770;0.266;2022-09-03T12:31:44;28.10;99.90
54082;DHT22;39986;50.770;0.266;2022-09-03T12:34:11;30.30;99.90
54082;DHT22;39986;50.770;0.266;2022-09-03T12:36:44;32.30;99.90
54082;DHT22;39986;50.770;0.266;2022-09-03T12:39:10;33.40;99.90
54082;DHT22;39986;50.770;0.266;2022-09-03T12:41:37;33.30;99.90
54082;DHT22;39986;50.770;0.266;2022-09-03T12:44:03;33.10;99.90
54082;DHT22;39986;50.770;0.266;2022-09-03T12:46:29;33.40;99.90
54082;DHT22;39986;50.770;0.266;2022-09-03T12:48:58;34.10;99.90
54082;DHT22;39986;50.770;0.266;2022-09-03T12:51:32;33.90;99.60
54082;DHT22;39986;50.770;0.266;2022-09-03T12:53:58;33.80;99.60
54082;DHT22;39986;50.770;0.266;2022-09-03T12:56:23;33.80;98.20
54082;DHT22;39986;50.770;0.266;2022-09-03T12:58:53;33.90;97.30
54082;DHT22;39986;50.770;0.266;2022-09-03T13:01:25;34.40;96.30
54082;DHT22;39986;50.770;0.266;2022-09-03T13:03:56;34.90;96.00
54082;DHT22;39986;50.770;0.266;2022-09-03T13:06:27;34.80;95.60
54082;DHT22;39986;50.770;0.266;2022-09-03T13:08:54;33.90;97.00
54082;DHT22;39986;50.770;0.266;2022-09-03T13:11:21;33.90;96.90
54082;DHT22;39986;50.770;0.266;2022-09-03T13:14:10;34.10;96.90
54082;DHT22;39986;50.770;0.266;2022-09-03T13:32:14;37.10;92.00
54082;DHT22;39986;50.770;0.266;2022-09-03T13:35:05;37.00;91.60
54082;DHT22;39986;50.770;0.266;2022-09-03T13:37:36;36.20;93.00
54082;DHT22;39986;50.770;0.266;2022-09-03T13:42:36;34.60;94.20
54082;DHT22;39986;50.770;0.266;2022-09-03T13:47:51;32.70;97.20
54082;DHT22;39986;50.770;0.266;2022-09-03T13:53:58;32.90;96.90
54082;DHT22;39986;50.770;0.266;2022-09-03T13:56:18;33.60;95.70
54082;DHT22;39986;50.770;0.266;2022-09-03T13:58:45;34.80;94.30
54082;DHT22;39986;50.770;0.266;2022-09-03T14:01:15;35.30;93.00
54082;DHT22;39986;50.770;0.266;2022-09-03T14:03:49;35.40;92.30
54082;DHT22;39986;50.770;0.266;2022-09-03T14:11:29;33.90;94.60
54082;DHT22;39986;50.770;0.266;2022-09-03T14:18:56;32.90;96.20
54082;DHT22;39986;50.770;0.266;2022-09-03T14:21:27;32.20;97.20
54082;DHT22;39986;50.770;0.266;2022-09-03T14:23:55;31.70;98.10
54082;DHT22;39986;50.770;0.266;2022-09-03T14:26:31;31.90;98.20
54082;DHT22;39986;50.770;0.266;2022-09-03T14:28:58;32.50;97.50
54082;DHT22;39986;50.770;0.266;2022-09-03T14:33:53;33.40;95.90
54082;DHT22;39986;50.770;0.266;2022-09-03T14:38:56;35.40;93.70
54082;DHT22;39986;50.770;0.266;2022-09-03T14:46:43;33.70;95.10
54082;DHT22;39986;50.770;0.266;2022-09-03T14:59:57;34.90;93.20
54082;DHT22;39986;50.770;0.266;2022-09-03T15:12:46;38.70;83.80
54082;DHT22;39986;50.770;0.266;2022-09-03T15:18:09;37.40;83.80
54082;DHT22;39986;50.770;0.266;2022-09-03T15:20:52;36.00;88.00
54082;DHT22;39986;50.770;0.266;2022-09-03T15:31:15;31.80;94.40
54082;DHT22;39986;50.770;0.266;2022-09-03T15:34:00;30.80;96.90
54082;DHT22;39986;50.770;0.266;2022-09-03T15:36:44;29.40;99.00
54082;DHT22;39986;50.770;0.266;2022-09-03T15:39:30;28.20;99.90
54082;DHT22;39986;50.770;0.266;2022-09-03T15:41:58;27.40;99.90
54082;DHT22;39986;50.770;0.266;2022-09-03T15:44:25;26.80;99.90
54082;DHT22;39986;50.770;0.266;2022-09-03T15:54:36;26.40;99.90
54082;DHT22;39986;50.770;0.266;2022-09-03T15:59:51;26.50;99.90
54082;DHT22;39986;50.770;0.266;2022-09-03T16:02:19;26.60;99.90
54082;DHT22;39986;50.770;0.266;2022-09-03T16:15:24;24.90;99.90
54082;DHT22;39986;50.770;0.266;2022-09-03T16:18:01;24.80;99.90
54082;DHT22;39986;50.770;0.266;2022-09-03T16:25:28;24.00;99.90
54082;DHT22;39986;50.770;0.266;2022-09-03T16:35:42;24.50;99.90
54082;DHT22;39986;50.770;0.266;2022-09-03T16:40:41;24.60;99.90
54082;DHT22;39986;50.770;0.266;2022-09-03T16:45:55;24.50;99.90
54082;DHT22;39986;50.770;0.266;2022-09-03T16:51:16;24.00;99.90
54082;DHT22;39986;50.770;0.266;2022-09-03T16:59:15;23.70;99.90
54082;DHT22;39986;50.770;0.266;2022-09-03T17:01:47;23.50;99.90
54082;DHT22;39986;50.770;0.266;2022-09-03T17:07:03;23.30;99.90
54082;DHT22;39986;50.770;0.266;2022-09-03T17:09:36;23.20;99.90
54082;DHT22;39986;50.770;0.266;2022-09-03T17:14:48;23.10;99.90
54082;DHT22;39986;50.770;0.266;2022-09-03T17:25:19;23.20;99.90
54082;DHT22;39986;50.770;0.266;2022-09-03T17:27:50;23.20;99.90
54082;DHT22;39986;50.770;0.266;2022-09-03T17:33:25;23.10;99.90
54082;DHT22;39986;50.770;0.266;2022-09-03T17:36:11;23.00;99.90
54082;DHT22;39986;50.770;0.266;2022-09-03T17:44:04;22.80;99.90
54082;DHT22;39986;50.770;0.266;2022-09-03T17:46:55;22.80;99.90
54082;DHT22;39986;50.770;0.266;2022-09-03T17:49:23;22.80;99.90
54082;DHT22;39986;50.770;0.266;2022-09-03T18:12:46;22.10;99.90
54082;DHT22;39986;50.770;0.266;2022-09-03T18:17:53;22.00;99.90
54082;DHT22;39986;50.770;0.266;2022-09-03T18:20:25;21.90;99.90
54082;DHT22;39986;50.770;0.266;2022-09-03T18:23:19;21.90;99.90
54082;DHT22;39986;50.770;0.266;2022-09-03T18:26:05;21.80;99.90
54082;DHT22;39986;50.770;0.266;2022-09-03T18:28:56;21.80;99.90
54082;DHT22;39986;50.770;0.266;2022-09-03T18:31:42;21.70;99.90
54082;DHT22;39986;50.770;0.266;2022-09-03T18:34:30;21.70;99.90
54082;DHT22;39986;50.770;0.266;2022-09-03T18:37:15;21.70;99.90
54082;DHT22;39986;50.770;0.266;2022-09-03T18:40:00;21.60;99.90
54082;DHT22;39986;50.770;0.266;2022-09-03T18:49:10;21.50;99.90
54082;DHT22;39986;50.770;0.266;2022-09-03T18:55:05;21.40;99.90
54082;DHT22;39986;50.770;0.266;2022-09-03T19:01:13;21.30;99.90
54082;DHT22;39986;50.770;0.266;2022-09-03T19:04:13;21.30;99.90
54082;DHT22;39986;50.770;0.266;2022-09-03T19:07:07;21.30;99.90
54082;DHT22;39986;50.770;0.266;2022-09-03T19:15:23;21.20;99.90
54082;DHT22;39986;50.770;0.266;2022-09-03T19:20:57;21.10;99.90
54082;DHT22;39986;50.770;0.266;2022-09-03T19:23:43;20.90;99.90
54082;DHT22;39986;50.770;0.266;2022-09-03T19:26:41;20.80;99.90
54082;DHT22;39986;50.770;0.266;2022-09-03T19:32:19;20.60;99.90
54082;DHT22;39986;50.770;0.266;2022-09-03T19:35:18;20.60;99.90
54082;DHT22;39986;50.770;0.266;2022-09-03T19:40:58;20.50;99.90
54082;DHT22;39986;50.770;0.266;2022-09-03T19:46:51;20.40;99.90
54082;DHT22;39986;50.770;0.266;2022-09-03T19:55:08;20.40;99.90
54082;DHT22;39986;50.770;0.266;2022-09-03T19:57:54;20.30;99.90
54082;DHT22;39986;50.770;0.266;2022-09-03T20:00:42;20.30;99.90
54082;DHT22;39986;50.770;0.266;2022-09-03T20:03:26;20.30;99.90
54082;DHT22;39986;50.770;0.266;2022-09-03T20:06:11;20.20;99.90
54082;DHT22;39986;50.770;0.266;2022-09-03T20:09:02;20.20;99.90
54082;DHT22;39986;50.770;0.266;2022-09-03T20:11:48;20.10;99.90
54082;DHT22;39986;50.770;0.266;2022-09-03T20:14:14;20.10;99.90
54082;DHT22;39986;50.770;0.266;2022-09-03T20:30:07;20.10;99.90
54082;DHT22;39986;50.770;0.266;2022-09-03T20:44:07;20.00;99.90
54082;DHT22;39986;50.770;0.266;2022-09-03T20:51:45;19.90;99.90
54082;DHT22;39986;50.770;0.266;2022-09-03T20:54:18;19.80;99.90
54082;DHT22;39986;50.770;0.266;2022-09-03T21:01:56;19.80;99.90
54082;DHT22;39986;50.770;0.266;2022-09-03T21:04:42;19.80;99.90
54082;DHT22;39986;50.770;0.266;2022-09-03T21:07:19;19.90;99.90
54082;DHT22;39986;50.770;0.266;2022-09-03T21:12:27;19.80;99.90
54082;DHT22;39986;50.770;0.266;2022-09-03T21:22:38;19.90;99.90
54082;DHT22;39986;50.770;0.266;2022-09-03T21:25:12;19.90;99.90
54082;DHT22;39986;50.770;0.266;2022-09-03T21:27:48;19.90;99.90
54082;DHT22;39986;50.770;0.266;2022-09-03T21:30:17;19.80;99.90
54082;DHT22;39986;50.770;0.266;2022-09-03T21:32:44;19.80;99.90
54082;DHT22;39986;50.770;0.266;2022-09-03T21:37:57;19.80;99.90
54082;DHT22;39986;50.770;0.266;2022-09-03T21:40:25;19.90;99.90
54082;DHT22;39986;50.770;0.266;2022-09-03T21:48:02;19.90;99.90
54082;DHT22;39986;50.770;0.266;2022-09-03T21:50:46;19.90;99.90
54082;DHT22;39986;50.770;0.266;2022-09-03T21:53:15;19.90;99.90
54082;DHT22;39986;50.770;0.266;2022-09-03T21:58:23;19.90;99.90
54082;DHT22;39986;50.770;0.266;2022-09-03T22:00:54;20.00;99.90
54082;DHT22;39986;50.770;0.266;2022-09-03T22:03:21;20.00;99.90
54082;DHT22;39986;50.770;0.266;2022-09-03T22:05:49;20.00;99.90
54082;DHT22;39986;50.770;0.266;2022-09-03T22:08:19;20.00;99.90
54082;DHT22;39986;50.770;0.266;2022-09-03T22:15:43;20.00;99.90